Time;durP1;ratioP1;P1;durP2;ratioP2;P2;SDS_P1;SDS_P2;PMS_P1;PMS_P2;Temp;Humidity;BMP_temperature;BMP_pressure;BME280_temperature;BME280_humidity;BME280_pressure;Samples;Min_cycle;Max_cycle;Signal;HPM_P1;HPM_P2
2022/04/05 00:02:26;;;;;;;9.63;5.32;;;;;;;;;;8268607;28;20543;-85
2022/04/05 00:06:29;;;;;;;10.75;6.35;;;;;;;;;;8270035;28;20055;-85
2022/04/05 00:10:34;;;;;;;10.25;6.55;;;;;;;;;;8268515;28;20398;-85
2022/04/05 00:14:37;;;;;;;10.13;5.95;;;;;;;;;;8268011;28;20478;-84
2022/04/05 00:18:39;;;;;;;14.30;7.25;;;;;;;;;;8267623;28;20053;-86
2022/04/05 00:22:42;;;;;;;11.10;6.57;;;;;;;;;;8268201;28;20050;-83
2022/04/05 00:26:46;;;;;;;11.80;7.00;;;;;;;;;;8268242;28;20410;-80
2022/04/05 00:30:49;;;;;;;12.32;7.15;;;;;;;;;;8541582;23;20046;-81
2022/04/05 00:34:51;;;;;;;12.25;6.95;;;;;;;;;;8299471;28;20103;-80
2022/04/05 00:38:54;;;;;;;13.10;7.18;;;;;;;;;;8298651;28;20482;-82
2022/04/05 00:42:58;;;;;;;13.25;7.53;;;;;;;;;;8298744;28;20049;-80
2022/04/05 00:47:10;;;;;;;10.88;7.18;;;;;;;;;;8298489;28;20045;-79
2022/04/05 00:51:13;;;;;;;12.47;7.37;;;;;;;;;;8298522;28;20052;-81
2022/04/05 00:55:19;;;;;;;12.57;6.97;;;;;;;;;;8305635;28;21030;-80
2022/04/05 00:59:24;;;;;;;14.13;7.78;;;;;;;;;;8331628;28;20046;-79
2022/04/05 01:03:27;;;;;;;13.65;8.85;;;;;;;;;;8331511;28;20071;-81
2022/04/05 01:07:33;;;;;;;14.45;7.72;;;;;;;;;;8330712;28;20129;-81
2022/04/05 01:11:36;;;;;;;13.63;7.90;;;;;;;;;;8330888;28;20055;-79
2022/04/05 01:15:41;;;;;;;13.00;8.00;;;;;;;;;;8330671;28;20049;-81
2022/04/05 01:19:46;;;;;;;13.90;7.97;;;;;;;;;;8330459;28;20045;-80
2022/04/05 01:24:06;;;;;;;13.23;7.97;;;;;;;;;;8330528;28;20156;-80
2022/04/05 01:28:09;;;;;;;13.70;7.28;;;;;;;;;;8330437;28;20049;-79
2022/04/05 01:32:11;;;;;;;21.27;8.50;;;;;;;;;;8330291;28;20053;-80
2022/04/05 01:36:22;;;;;;;15.70;9.00;;;;;;;;;;8330456;28;20085;-80
2022/04/05 01:40:28;;;;;;;15.00;8.52;;;;;;;;;;8330117;28;20098;-80
2022/04/05 01:44:32;;;;;;;14.93;8.23;;;;;;;;;;8330223;28;20050;-80
2022/04/05 01:48:35;;;;;;;14.88;8.80;;;;;;;;;;8330203;28;20041;-79
2022/04/05 01:52:37;;;;;;;14.52;8.88;;;;;;;;;;8330065;28;20058;-79
2022/04/05 01:56:45;;;;;;;16.58;9.40;;;;;;;;;;8333079;28;20053;-80
2022/04/05 02:00:50;;;;;;;14.70;8.95;;;;;;;;;;8336007;28;20515;-80
2022/04/05 02:04:53;;;;;;;16.42;9.27;;;;;;;;;;8336355;28;20053;-78
2022/04/05 02:08:55;;;;;;;18.88;10.07;;;;;;;;;;8336157;28;20049;-80
2022/04/05 02:12:59;;;;;;;14.00;8.68;;;;;;;;;;8335641;28;20104;-80
2022/04/05 02:17:02;;;;;;;15.95;8.65;;;;;;;;;;8335532;28;20065;-83
2022/04/05 02:21:05;;;;;;;14.98;8.85;;;;;;;;;;8335889;28;20045;-80
2022/04/05 02:25:09;;;;;;;15.73;9.65;;;;;;;;;;8335394;28;20045;-80
2022/04/05 02:29:13;;;;;;;15.48;9.10;;;;;;;;;;8335175;28;20061;-81
2022/04/05 02:33:15;;;;;;;14.90;8.65;;;;;;;;;;8335194;28;20050;-79
2022/04/05 02:37:18;;;;;;;18.40;9.70;;;;;;;;;;8334982;28;20050;-80
2022/04/05 02:41:20;;;;;;;16.10;9.15;;;;;;;;;;8335174;28;20464;-81
2022/04/05 02:45:24;;;;;;;16.75;9.15;;;;;;;;;;8334589;28;20053;-81
2022/04/05 02:49:27;;;;;;;15.48;9.20;;;;;;;;;;8334542;28;20654;-81
2022/04/05 02:53:29;;;;;;;13.20;8.73;;;;;;;;;;8334244;28;20454;-81
2022/04/05 02:57:36;;;;;;;15.20;8.98;;;;;;;;;;8334650;28;20050;-80
2022/04/05 03:01:40;;;;;;;18.17;9.27;;;;;;;;;;8334161;28;20045;-79
2022/04/05 03:05:42;;;;;;;16.25;9.45;;;;;;;;;;8305723;28;20469;-80
2022/04/05 03:09:45;;;;;;;14.55;9.32;;;;;;;;;;8300320;28;20104;-80
2022/04/05 03:13:47;;;;;;;15.63;9.10;;;;;;;;;;8301026;28;20053;-81
2022/04/05 03:17:53;;;;;;;16.98;9.35;;;;;;;;;;8300771;28;20115;-80
2022/04/05 03:21:55;;;;;;;15.65;8.90;;;;;;;;;;8300836;28;20042;-81
2022/04/05 03:25:58;;;;;;;14.15;9.38;;;;;;;;;;8300581;28;20046;-80
2022/04/05 03:30:00;;;;;;;18.08;10.30;;;;;;;;;;8300256;28;20054;-81
2022/04/05 03:34:04;;;;;;;18.13;8.82;;;;;;;;;;8300342;28;20054;-80
2022/04/05 03:38:07;;;;;;;14.40;9.57;;;;;;;;;;8300278;28;20050;-80
2022/04/05 03:42:10;;;;;;;16.67;10.63;;;;;;;;;;8300146;28;20465;-81
2022/04/05 03:46:12;;;;;;;24.60;13.75;;;;;;;;;;8300003;28;20053;-81
2022/04/05 03:50:17;;;;;;;21.35;12.23;;;;;;;;;;8299835;28;20076;-80
2022/04/05 03:54:20;;;;;;;23.00;13.80;;;;;;;;;;8299704;28;20133;-80
2022/04/05 03:58:23;;;;;;;18.17;10.80;;;;;;;;;;8299496;28;20449;-80
2022/04/05 04:02:25;;;;;;;20.83;13.70;;;;;;;;;;8299340;28;20066;-80
2022/04/05 04:06:29;;;;;;;18.55;11.82;;;;;;;;;;8299384;28;20099;-81
2022/04/05 04:10:32;;;;;;;20.73;12.02;;;;;;;;;;8299745;28;20041;-80
2022/04/05 04:14:35;;;;;;;20.45;13.13;;;;;;;;;;8299361;28;20052;-80
2022/04/05 04:18:37;;;;;;;19.92;11.93;;;;;;;;;;8299566;28;20042;-80
2022/04/05 04:22:41;;;;;;;19.10;11.95;;;;;;;;;;8298846;28;20054;-82
2022/04/05 04:26:44;;;;;;;23.00;14.20;;;;;;;;;;8299191;28;20042;-82
2022/04/05 04:30:46;;;;;;;19.55;11.07;;;;;;;;;;8298619;28;20053;-81
2022/04/05 04:34:49;;;;;;;21.52;11.70;;;;;;;;;;8298758;28;20057;-80
2022/04/05 04:38:53;;;;;;;17.63;11.38;;;;;;;;;;8298558;28;20168;-80
2022/04/05 04:42:55;;;;;;;19.73;11.68;;;;;;;;;;8298323;28;20286;-80
2022/04/05 04:46:58;;;;;;;15.73;10.07;;;;;;;;;;8298398;28;20500;-81
2022/04/05 04:51:01;;;;;;;19.88;12.77;;;;;;;;;;8298190;28;20104;-88
2022/04/05 04:55:06;;;;;;;16.45;10.68;;;;;;;;;;8298769;28;20054;-81
2022/04/05 04:59:09;;;;;;;19.52;11.63;;;;;;;;;;8298274;28;20149;-80
2022/04/05 05:03:12;;;;;;;19.23;11.23;;;;;;;;;;8297982;28;20061;-81
2022/04/05 05:07:15;;;;;;;16.17;10.02;;;;;;;;;;8294232;28;20057;-81
2022/04/05 05:11:21;;;;;;;21.55;11.88;;;;;;;;;;8284733;28;20042;-81
2022/04/05 05:15:27;;;;;;;18.45;10.65;;;;;;;;;;8298283;28;20046;-81
2022/04/05 05:19:36;;;;;;;18.52;11.32;;;;;;;;;;8297788;28;20436;-81
2022/04/05 05:23:41;;;;;;;17.88;11.02;;;;;;;;;;8297673;28;20107;-81
2022/04/05 05:27:48;;;;;;;21.10;12.35;;;;;;;;;;8297585;28;20049;-81
2022/04/05 05:31:53;;;;;;;21.73;10.60;;;;;;;;;;8300788;28;20058;-80
2022/04/05 05:35:58;;;;;;;16.38;10.68;;;;;;;;;;8303956;28;20117;-81
2022/04/05 05:40:06;;;;;;;28.35;14.40;;;;;;;;;;8303911;28;20050;-94
2022/04/05 05:44:11;;;;;;;26.25;13.10;;;;;;;;;;8303800;28;20486;-82
2022/04/05 05:48:14;;;;;;;19.63;11.95;;;;;;;;;;8303008;28;20045;-82
2022/04/05 05:52:18;;;;;;;16.25;9.82;;;;;;;;;;8285553;28;20388;-82
2022/04/05 05:56:22;;;;;;;17.60;10.90;;;;;;;;;;8303067;28;20125;-82
2022/04/05 06:00:28;;;;;;;16.73;10.27;;;;;;;;;;8303123;28;20042;-86
2022/04/05 06:04:31;;;;;;;16.15;10.93;;;;;;;;;;8303524;28;20060;-81
2022/04/05 06:08:39;;;;;;;16.33;10.20;;;;;;;;;;8301513;28;20461;-85
2022/04/05 06:12:45;;;;;;;16.20;10.45;;;;;;;;;;8302879;28;20038;-83
2022/04/05 06:16:49;;;;;;;14.05;10.00;;;;;;;;;;8302633;28;20050;-82
2022/04/05 06:20:53;;;;;;;18.00;11.48;;;;;;;;;;8302984;28;20077;-81
2022/04/05 06:24:55;;;;;;;21.65;13.02;;;;;;;;;;8302612;28;20481;-82
2022/04/05 06:28:58;;;;;;;19.38;11.35;;;;;;;;;;8302219;28;20053;-81
2022/04/05 06:33:13;;;;;;;15.82;10.85;;;;;;;;;;8302299;28;20053;-81
2022/04/05 06:37:16;;;;;;;18.30;9.95;;;;;;;;;;8302094;28;20041;-81
2022/04/05 06:41:18;;;;;;;16.45;10.90;;;;;;;;;;8301490;28;20054;-82
2022/04/05 06:45:24;;;;;;;16.00;10.57;;;;;;;;;;8270984;28;20544;-82
2022/04/05 06:49:29;;;;;;;14.60;8.95;;;;;;;;;;8298151;28;20432;-82
2022/04/05 06:53:32;;;;;;;15.57;9.13;;;;;;;;;;8298358;28;20049;-81
2022/04/05 06:57:35;;;;;;;14.00;9.05;;;;;;;;;;8299093;28;20053;-81
2022/04/05 07:01:38;;;;;;;11.02;7.55;;;;;;;;;;8301371;28;20073;-82
2022/04/05 07:05:42;;;;;;;15.90;8.52;;;;;;;;;;8301062;28;20540;-81
2022/04/05 07:09:45;;;;;;;11.15;7.60;;;;;;;;;;8301319;28;20417;-81
2022/04/05 07:13:48;;;;;;;11.57;7.63;;;;;;;;;;8301220;28;20049;-80
2022/04/05 07:17:51;;;;;;;13.23;8.65;;;;;;;;;;8300968;28;20188;-81
2022/04/05 07:21:56;;;;;;;14.60;9.82;;;;;;;;;;8300791;28;20065;-81
2022/04/05 07:25:59;;;;;;;12.65;8.13;;;;;;;;;;8300734;28;20382;-81
2022/04/05 07:30:01;;;;;;;12.27;8.38;;;;;;;;;;8300427;28;20120;-81
2022/04/05 07:34:05;;;;;;;13.65;8.60;;;;;;;;;;8300422;28;20124;-81
2022/04/05 07:38:09;;;;;;;14.75;8.60;;;;;;;;;;8300365;28;20056;-81
2022/04/05 07:42:12;;;;;;;17.30;8.75;;;;;;;;;;8300252;28;20046;-81
2022/04/05 07:46:15;;;;;;;11.85;7.85;;;;;;;;;;8300200;28;20068;-82
2022/04/05 07:50:18;;;;;;;12.25;7.45;;;;;;;;;;8300498;28;20100;-81
2022/04/05 07:54:22;;;;;;;12.10;7.50;;;;;;;;;;8299717;28;20481;-80
2022/04/05 07:58:26;;;;;;;12.65;7.50;;;;;;;;;;8299927;28;20050;-81
2022/04/05 08:02:29;;;;;;;11.27;7.60;;;;;;;;;;8299704;28;20072;-80
2022/04/05 08:06:33;;;;;;;10.70;7.00;;;;;;;;;;8299537;28;20403;-81
2022/04/05 08:10:37;;;;;;;11.23;7.22;;;;;;;;;;8299995;28;20493;-80
2022/04/05 08:14:40;;;;;;;12.88;7.60;;;;;;;;;;8299286;28;20050;-81
2022/04/05 08:18:43;;;;;;;11.10;7.57;;;;;;;;;;8299294;28;20058;-84
2022/04/05 08:22:47;;;;;;;11.75;7.28;;;;;;;;;;8299455;28;20046;-81
2022/04/05 08:26:53;;;;;;;12.35;7.35;;;;;;;;;;8299361;28;20119;-81
2022/04/05 08:30:56;;;;;;;12.82;7.43;;;;;;;;;;8298751;28;20062;-81
2022/04/05 08:34:59;;;;;;;12.50;6.93;;;;;;;;;;8299266;28;20042;-81
2022/04/05 08:39:03;;;;;;;11.60;7.65;;;;;;;;;;8298836;28;20056;-80
2022/04/05 08:43:09;;;;;;;12.98;7.57;;;;;;;;;;8298370;28;20111;-81
2022/04/05 08:47:14;;;;;;;13.52;8.82;;;;;;;;;;8298603;28;20050;-81
2022/04/05 08:51:17;;;;;;;12.45;7.85;;;;;;;;;;8298524;28;20053;-81
2022/04/05 08:55:20;;;;;;;11.90;8.30;;;;;;;;;;8298934;28;20042;-81
2022/04/05 08:59:25;;;;;;;12.55;8.55;;;;;;;;;;8298349;28;20052;-81
2022/04/05 09:03:29;;;;;;;10.98;7.78;;;;;;;;;;8298074;28;20049;-80
2022/04/05 09:07:33;;;;;;;17.08;9.35;;;;;;;;;;8297449;28;20124;-79
2022/04/05 09:11:37;;;;;;;12.15;8.50;;;;;;;;;;8298390;28;20050;-80
2022/04/05 09:15:44;;;;;;;12.65;8.18;;;;;;;;;;8298025;28;20052;-80
2022/04/05 09:19:48;;;;;;;12.15;8.48;;;;;;;;;;8298004;28;20041;-79
2022/04/05 09:23:52;;;;;;;14.85;9.00;;;;;;;;;;8297929;28;20489;-80
2022/04/05 09:28:00;;;;;;;12.18;8.07;;;;;;;;;;8297759;28;20050;-79
2022/04/05 09:32:05;;;;;;;11.80;8.25;;;;;;;;;;8297648;28;20154;-81
2022/04/05 09:36:12;;;;;;;12.60;8.13;;;;;;;;;;8297830;28;20454;-80
2022/04/05 09:40:18;;;;;;;14.23;8.25;;;;;;;;;;8297889;28;20042;-80
2022/04/05 09:44:32;;;;;;;15.70;9.10;;;;;;;;;;8297570;28;20058;-81
2022/04/05 09:48:37;;;;;;;11.25;7.50;;;;;;;;;;8297661;28;20129;-81
2022/04/05 09:52:40;;;;;;;12.85;8.63;;;;;;;;;;8297692;28;20041;-80
2022/04/05 09:56:44;;;;;;;14.85;9.35;;;;;;;;;;8297470;28;20467;-80
2022/04/05 10:01:06;;;;;;;12.15;8.18;;;;;;;;;;8297254;28;20046;-80
2022/04/05 10:05:11;;;;;;;16.77;9.73;;;;;;;;;;8297321;28;20076;-80
2022/04/05 10:09:19;;;;;;;10.88;7.63;;;;;;;;;;8294158;28;20046;-89
2022/04/05 10:13:30;;;;;;;12.85;8.93;;;;;;;;;;8293292;28;20493;-81
2022/04/05 10:17:34;;;;;;;11.50;7.72;;;;;;;;;;8296557;28;20054;-86
2022/04/05 10:21:43;;;;;;;12.45;6.78;;;;;;;;;;8300145;28;20049;-80
2022/04/05 10:25:48;;;;;;;11.02;7.40;;;;;;;;;;8299863;28;20516;-81
2022/04/05 10:29:59;;;;;;;10.00;7.25;;;;;;;;;;8305964;28;20061;-81
2022/04/05 10:34:14;;;;;;;12.85;7.50;;;;;;;;;;8301941;28;20121;-82
2022/04/05 10:38:21;;;;;;;9.43;6.07;;;;;;;;;;8300791;28;20041;-81
2022/04/05 10:42:39;;;;;;;10.52;6.90;;;;;;;;;;8300995;28;20478;-81
2022/04/05 10:46:58;;;;;;;9.77;7.15;;;;;;;;;;8301539;28;20501;-81
2022/04/05 10:51:35;;;;;;;8.30;6.57;;;;;;;;;;8301678;28;20041;-81
2022/04/05 10:56:14;;;;;;;9.00;6.30;;;;;;;;;;8301658;28;20129;-81
2022/04/05 11:00:36;;;;;;;10.25;6.97;;;;;;;;;;8300967;28;20057;-81
2022/04/05 11:04:52;;;;;;;10.27;5.95;;;;;;;;;;8323860;28;20045;-82
2022/04/05 11:09:09;;;;;;;13.90;7.65;;;;;;;;;;8333742;28;20052;-81
2022/04/05 11:13:36;;;;;;;11.32;8.50;;;;;;;;;;8322881;28;20066;-81
2022/04/05 11:18:01;;;;;;;8.93;6.20;;;;;;;;;;8290384;28;20069;-82
2022/04/05 11:22:29;;;;;;;13.18;7.15;;;;;;;;;;8294325;28;20042;-81
2022/04/05 11:26:35;;;;;;;12.13;7.75;;;;;;;;;;8299327;28;20052;-81
2022/04/05 11:30:40;;;;;;;15.70;8.90;;;;;;;;;;8298278;28;20528;-81
2022/04/05 11:34:48;;;;;;;30.13;12.43;;;;;;;;;;8300237;28;20429;-80
2022/04/05 11:38:53;;;;;;;19.20;12.73;;;;;;;;;;8297897;28;20046;-85
2022/04/05 11:43:07;;;;;;;32.58;22.60;;;;;;;;;;8309564;28;21210;-83
2022/04/05 11:47:25;;;;;;;15.02;10.02;;;;;;;;;;8291177;28;20426;-81
2022/04/05 11:51:46;;;;;;;16.70;11.05;;;;;;;;;;8287323;28;20042;-83
2022/04/05 11:56:36;;;;;;;35.22;16.52;;;;;;;;;;8291109;28;20038;-81
2022/04/05 12:00:57;;;;;;;15.05;8.98;;;;;;;;;;8290630;28;20046;-81
2022/04/05 12:05:23;;;;;;;34.20;17.13;;;;;;;;;;8295924;28;20042;-83
2022/04/05 12:09:37;;;;;;;11.40;6.43;;;;;;;;;;8290806;28;20076;-82
2022/04/05 12:14:00;;;;;;;7.35;5.07;;;;;;;;;;8236810;28;20104;-82
2022/04/05 12:18:17;;;;;;;7.72;3.97;;;;;;;;;;8271130;28;20057;-83
2022/04/05 12:22:23;;;;;;;6.03;3.47;;;;;;;;;;8273494;28;20489;-85
2022/04/05 12:26:36;;;;;;;5.93;3.85;;;;;;;;;;8296586;28;20046;-83
2022/04/05 12:30:45;;;;;;;8.13;4.97;;;;;;;;;;8316527;28;20663;-83
2022/04/05 12:39:59;;;;;;;4.93;3.10;;;;;;;;;;8298198;28;20490;-84
2022/04/05 12:45:06;;;;;;;8.48;4.25;;;;;;;;;;8280842;28;20054;-85
2022/04/05 12:49:49;;;;;;;8.23;4.38;;;;;;;;;;8197790;29;20061;-84
2022/04/05 12:53:59;;;;;;;10.60;5.50;;;;;;;;;;8217822;28;20542;-83
2022/04/05 12:58:02;;;;;;;9.18;5.30;;;;;;;;;;8195190;28;20114;-82
2022/04/05 13:02:07;;;;;;;11.95;5.90;;;;;;;;;;8188391;28;20470;-82
2022/04/05 13:06:27;;;;;;;11.45;5.53;;;;;;;;;;8204852;28;20059;-83
2022/04/05 13:11:01;;;;;;;15.63;7.30;;;;;;;;;;8207186;28;20079;-83
2022/04/05 13:15:14;;;;;;;17.58;8.60;;;;;;;;;;8191520;28;20051;-83
2022/04/05 13:19:22;;;;;;;19.90;10.77;;;;;;;;;;8195992;29;20090;-82
2022/04/05 13:23:27;;;;;;;14.93;7.43;;;;;;;;;;8213285;28;20051;-83
2022/04/05 13:27:30;;;;;;;9.00;4.47;;;;;;;;;;8197302;29;20164;-81
2022/04/05 13:31:34;;;;;;;13.15;7.53;;;;;;;;;;8197312;28;20562;-83
2022/04/05 13:35:39;;;;;;;11.55;6.50;;;;;;;;;;8197654;29;20051;-83
2022/04/05 13:39:45;;;;;;;28.48;12.88;;;;;;;;;;8245671;28;20141;-83
2022/04/05 13:43:48;;;;;;;17.95;8.10;;;;;;;;;;8265542;28;20082;-83
2022/04/05 13:47:54;;;;;;;22.35;8.05;;;;;;;;;;8249234;28;20074;-82
2022/04/05 13:52:02;;;;;;;19.40;8.77;;;;;;;;;;8247073;28;20058;-83
2022/04/05 13:56:06;;;;;;;22.95;9.52;;;;;;;;;;8271036;28;20054;-83
2022/04/05 14:00:10;;;;;;;27.83;10.77;;;;;;;;;;8269804;28;20486;-84
2022/04/05 14:04:14;;;;;;;50.85;17.92;;;;;;;;;;8270715;28;20069;-82
2022/04/05 14:08:19;;;;;;;102.78;33.47;;;;;;;;;;8270929;28;20092;-86
2022/04/05 14:12:22;;;;;;;13.82;5.90;;;;;;;;;;8271171;28;20058;-83
2022/04/05 14:16:26;;;;;;;21.70;8.68;;;;;;;;;;8270604;28;20146;-83
2022/04/05 14:20:30;;;;;;;27.42;10.30;;;;;;;;;;8270517;28;20129;-81
2022/04/05 14:24:35;;;;;;;72.95;26.17;;;;;;;;;;8271060;28;20042;-83
2022/04/05 14:28:39;;;;;;;16.67;7.05;;;;;;;;;;8271625;28;20046;-83
2022/04/05 14:32:43;;;;;;;12.40;5.53;;;;;;;;;;8267339;28;20051;-82
2022/04/05 14:36:46;;;;;;;20.88;8.70;;;;;;;;;;8290497;28;20049;-80
2022/04/05 14:40:51;;;;;;;8.82;4.40;;;;;;;;;;8291181;28;20043;-84
2022/04/05 14:44:54;;;;;;;31.73;13.48;;;;;;;;;;8291360;28;20034;-84
2022/04/05 14:48:59;;;;;;;12.77;6.43;;;;;;;;;;8281820;28;20042;-84
2022/04/05 14:53:02;;;;;;;16.23;6.15;;;;;;;;;;8275314;28;20059;-82
2022/04/05 14:57:07;;;;;;;11.73;5.07;;;;;;;;;;8336052;28;20060;-84
2022/04/05 15:01:11;;;;;;;14.57;5.72;;;;;;;;;;8335966;28;20054;-83
2022/04/05 15:05:14;;;;;;;30.50;10.73;;;;;;;;;;8313772;28;20046;-82
2022/04/05 15:09:18;;;;;;;34.92;11.15;;;;;;;;;;8302429;28;20049;-84
2022/04/05 15:13:22;;;;;;;26.35;9.73;;;;;;;;;;8301993;28;20501;-84
2022/04/05 15:17:25;;;;;;;8.30;3.42;;;;;;;;;;8301043;28;20501;-83
2022/04/05 15:21:31;;;;;;;7.72;4.40;;;;;;;;;;8284306;28;20486;-85
2022/04/05 15:25:36;;;;;;;6.32;4.03;;;;;;;;;;8300732;28;20049;-83
2022/04/05 15:29:42;;;;;;;5.63;3.55;;;;;;;;;;8300557;28;20053;-82
2022/04/05 15:33:46;;;;;;;6.95;3.78;;;;;;;;;;8299728;28;20397;-83
2022/04/05 15:37:50;;;;;;;8.73;4.10;;;;;;;;;;8273003;28;20042;-87
2022/04/05 15:41:56;;;;;;;11.60;4.43;;;;;;;;;;8282181;28;20046;-83
2022/04/05 15:46:02;;;;;;;7.28;3.67;;;;;;;;;;8283534;28;20141;-88
2022/04/05 15:50:06;;;;;;;6.72;3.05;;;;;;;;;;8299526;28;20052;-84
2022/04/05 15:54:09;;;;;;;8.27;3.20;;;;;;;;;;8304217;28;20046;-81
2022/04/05 15:58:13;;;;;;;14.60;5.55;;;;;;;;;;8299895;28;20049;-83
2022/04/05 16:02:19;;;;;;;14.40;5.35;;;;;;;;;;8264612;28;20838;-83
2022/04/05 16:06:28;;;;;;;14.13;4.90;;;;;;;;;;8258623;28;20509;-84
2022/04/05 16:10:47;;;;;;;15.32;7.32;;;;;;;;;;8274133;28;20117;-90
2022/04/05 16:14:56;;;;;;;18.77;7.00;;;;;;;;;;8258348;28;20058;-83
2022/04/05 16:19:00;;;;;;;15.35;6.28;;;;;;;;;;8266028;28;20130;-83
2022/04/05 16:23:05;;;;;;;10.30;4.25;;;;;;;;;;8250445;28;20050;-83
2022/04/05 16:27:14;;;;;;;11.18;4.88;;;;;;;;;;8265772;28;20105;-83
2022/04/05 16:31:26;;;;;;;13.60;6.55;;;;;;;;;;8260327;28;20414;-83
2022/04/05 16:35:34;;;;;;;46.75;18.33;;;;;;;;;;8260131;28;20116;-82
2022/04/05 16:39:51;;;;;;;36.25;13.60;;;;;;;;;;8258548;28;20089;-83
2022/04/05 16:44:12;;;;;;;147.65;39.05;;;;;;;;;;8257075;28;20053;-81
2022/04/05 16:48:23;;;;;;;15.05;7.30;;;;;;;;;;8257739;28;20039;-83
2022/04/05 16:52:53;;;;;;;45.25;15.68;;;;;;;;;;8259182;28;20046;-83
2022/04/05 16:57:10;;;;;;;11.77;5.50;;;;;;;;;;8251101;28;20221;-84
2022/04/05 17:01:18;;;;;;;116.97;28.70;;;;;;;;;;8281800;28;20084;-83
2022/04/05 17:05:22;;;;;;;45.05;13.80;;;;;;;;;;8276240;28;20038;-85
2022/04/05 17:09:27;;;;;;;106.88;27.83;;;;;;;;;;8265397;28;20046;-83
2022/04/05 17:13:30;;;;;;;63.33;21.35;;;;;;;;;;8267592;28;20503;-83
2022/04/05 17:17:33;;;;;;;48.88;16.20;;;;;;;;;;8265357;28;20053;-83
2022/04/05 17:21:37;;;;;;;71.88;23.75;;;;;;;;;;8264470;28;20042;-84
2022/04/05 17:25:42;;;;;;;87.25;26.13;;;;;;;;;;8254883;28;20057;-82
2022/04/05 17:29:49;;;;;;;88.80;32.15;;;;;;;;;;8272070;28;20248;-82
2022/04/05 17:39:21;;;;;;;65.93;23.77;;;;;;;;;;8298106;28;20042;-81
2022/04/05 17:43:37;;;;;;;56.15;25.60;;;;;;;;;;8302856;28;20049;-82
2022/04/05 17:47:47;;;;;;;83.97;26.00;;;;;;;;;;8302721;28;20046;-81
2022/04/05 17:51:51;;;;;;;64.32;18.83;;;;;;;;;;8302087;28;20046;-82
2022/04/05 17:55:56;;;;;;;34.53;15.30;;;;;;;;;;8303299;28;20038;-82
2022/04/05 18:00:00;;;;;;;44.92;15.30;;;;;;;;;;8303018;28;20100;-82
2022/04/05 18:04:05;;;;;;;33.25;11.68;;;;;;;;;;8303166;28;20046;-82
2022/04/05 18:08:08;;;;;;;31.83;11.05;;;;;;;;;;8302981;28;20553;-81
2022/04/05 18:12:14;;;;;;;31.77;11.80;;;;;;;;;;8303146;28;20046;-82
2022/04/05 18:16:19;;;;;;;51.30;18.67;;;;;;;;;;8302052;28;20088;-82
2022/04/05 18:20:23;;;;;;;25.95;11.68;;;;;;;;;;8300260;28;20046;-82
2022/04/05 18:24:30;;;;;;;20.02;11.02;;;;;;;;;;8299808;28;20049;-82
2022/04/05 18:28:37;;;;;;;36.22;16.10;;;;;;;;;;8294607;28;20172;-81
2022/04/05 18:32:43;;;;;;;46.35;18.95;;;;;;;;;;8301206;28;20053;-82
2022/04/05 18:36:47;;;;;;;33.25;15.88;;;;;;;;;;8290718;28;20412;-82
2022/04/05 18:40:50;;;;;;;56.35;25.05;;;;;;;;;;8300021;28;20050;-82
2022/04/05 18:44:53;;;;;;;44.55;17.67;;;;;;;;;;8300105;28;20050;-80
2022/04/05 18:48:58;;;;;;;32.20;13.23;;;;;;;;;;8301878;28;20054;-81
2022/04/05 18:53:02;;;;;;;41.72;15.95;;;;;;;;;;8303147;28;20042;-81
2022/04/05 18:57:05;;;;;;;53.00;19.17;;;;;;;;;;8334700;28;20144;-81
2022/04/05 19:01:11;;;;;;;22.55;10.18;;;;;;;;;;8334609;28;20049;-81
2022/04/05 19:05:16;;;;;;;45.83;16.98;;;;;;;;;;8314918;28;20489;-81
2022/04/05 19:09:20;;;;;;;32.90;14.60;;;;;;;;;;8301540;28;20042;-81
2022/04/05 19:13:23;;;;;;;78.60;24.65;;;;;;;;;;8301757;28;20481;-81
2022/04/05 19:17:27;;;;;;;94.10;29.33;;;;;;;;;;8301685;28;20477;-81
2022/04/05 19:21:31;;;;;;;94.57;29.45;;;;;;;;;;8301586;28;20405;-81
2022/04/05 19:25:36;;;;;;;23.98;10.65;;;;;;;;;;8300944;28;20073;-81
2022/04/05 19:29:39;;;;;;;30.52;12.93;;;;;;;;;;8300720;28;20088;-81
2022/04/05 19:33:43;;;;;;;81.32;25.02;;;;;;;;;;8300702;28;20100;-81
2022/04/05 19:37:49;;;;;;;51.83;19.33;;;;;;;;;;8300646;28;20050;-81
2022/04/05 19:41:54;;;;;;;35.33;14.68;;;;;;;;;;8283409;28;20402;-81
2022/04/05 19:45:59;;;;;;;27.90;11.38;;;;;;;;;;8300086;28;20046;-81
2022/04/05 19:50:03;;;;;;;71.22;27.42;;;;;;;;;;8299770;28;20053;-81
2022/04/05 19:54:08;;;;;;;25.23;12.07;;;;;;;;;;8299947;28;20099;-81
2022/04/05 19:58:12;;;;;;;18.17;9.32;;;;;;;;;;8300130;28;20057;-81
2022/04/05 20:02:17;;;;;;;21.10;10.55;;;;;;;;;;8299785;28;20137;-81
2022/04/05 20:06:20;;;;;;;45.25;18.52;;;;;;;;;;8299906;28;20053;-81
2022/04/05 20:10:25;;;;;;;18.48;9.15;;;;;;;;;;8299917;28;20054;-81
2022/04/05 20:14:29;;;;;;;22.90;13.27;;;;;;;;;;8299771;28;20056;-82
2022/04/05 20:18:43;;;;;;;29.67;13.05;;;;;;;;;;8299280;28;20049;-81
2022/04/05 20:22:46;;;;;;;14.55;7.10;;;;;;;;;;8299305;28;20042;-81
2022/04/05 20:26:51;;;;;;;68.55;23.38;;;;;;;;;;8299050;28;20084;-81
2022/04/05 20:30:55;;;;;;;23.10;10.60;;;;;;;;;;8298787;28;20502;-81
2022/04/05 20:34:59;;;;;;;32.33;14.60;;;;;;;;;;8298963;28;20080;-81
2022/04/05 20:39:03;;;;;;;22.88;11.00;;;;;;;;;;8299835;28;20045;-81
2022/04/05 20:43:08;;;;;;;22.63;9.40;;;;;;;;;;8298617;28;20050;-81
2022/04/05 20:47:11;;;;;;;23.05;10.98;;;;;;;;;;8298757;28;20096;-82
2022/04/05 20:51:15;;;;;;;16.00;7.60;;;;;;;;;;8298811;28;20104;-82
2022/04/05 20:55:19;;;;;;;26.77;10.77;;;;;;;;;;8298578;28;20080;-82
2022/04/05 20:59:23;;;;;;;16.45;8.45;;;;;;;;;;8298450;28;20480;-82
2022/04/05 21:03:26;;;;;;;15.45;8.20;;;;;;;;;;8297680;28;20408;-81
2022/04/05 21:07:29;;;;;;;23.65;11.23;;;;;;;;;;8298889;28;20500;-83
2022/04/05 21:11:31;;;;;;;17.35;8.77;;;;;;;;;;8294460;28;20117;-83
2022/04/05 21:15:37;;;;;;;15.02;8.13;;;;;;;;;;8278230;28;20046;-82
2022/04/05 21:19:40;;;;;;;21.80;9.52;;;;;;;;;;8265464;28;20096;-82
2022/04/05 21:23:42;;;;;;;29.55;10.27;;;;;;;;;;8265424;28;20054;-82
2022/04/05 21:27:46;;;;;;;20.38;8.73;;;;;;;;;;8276565;28;20074;-82
2022/04/05 21:31:50;;;;;;;16.85;7.32;;;;;;;;;;8275846;28;20058;-82
2022/04/05 21:35:53;;;;;;;18.90;8.32;;;;;;;;;;8291936;28;20387;-82
2022/04/05 21:39:56;;;;;;;16.05;7.93;;;;;;;;;;8270364;28;20046;-82
2022/04/05 21:44:00;;;;;;;15.45;6.82;;;;;;;;;;8287286;28;20053;-84
2022/04/05 21:48:04;;;;;;;16.50;7.80;;;;;;;;;;8295093;28;20061;-81
2022/04/05 21:52:10;;;;;;;16.13;8.30;;;;;;;;;;8295358;28;20046;-86
2022/04/05 21:56:13;;;;;;;15.57;7.78;;;;;;;;;;8278176;28;20046;-83
2022/04/05 22:00:18;;;;;;;16.65;7.85;;;;;;;;;;8330126;28;20037;-82
2022/04/05 22:04:22;;;;;;;14.65;8.25;;;;;;;;;;8330009;28;20073;-82
2022/04/05 22:08:27;;;;;;;12.38;7.22;;;;;;;;;;8330019;28;20049;-81
2022/04/05 22:12:30;;;;;;;17.50;7.85;;;;;;;;;;8331286;28;20046;-83
2022/04/05 22:16:33;;;;;;;15.23;7.63;;;;;;;;;;8336359;28;20076;-82
2022/04/05 22:20:38;;;;;;;19.85;8.65;;;;;;;;;;8335778;28;20045;-82
2022/04/05 22:24:40;;;;;;;18.00;9.05;;;;;;;;;;8336322;28;20136;-82
2022/04/05 22:28:43;;;;;;;16.55;7.53;;;;;;;;;;8335788;28;20496;-82
2022/04/05 22:32:46;;;;;;;15.32;7.65;;;;;;;;;;8335258;28;20067;-81
2022/04/05 22:36:50;;;;;;;15.20;7.85;;;;;;;;;;8335609;28;20053;-81
2022/04/05 22:40:53;;;;;;;13.82;7.15;;;;;;;;;;8335427;28;20045;-82
2022/04/05 22:44:55;;;;;;;14.13;7.15;;;;;;;;;;8334105;28;20045;-81
2022/04/05 22:48:58;;;;;;;15.07;7.53;;;;;;;;;;8334956;28;20084;-81
2022/04/05 22:53:04;;;;;;;13.43;6.30;;;;;;;;;;8334213;28;20075;-81
2022/04/05 22:57:06;;;;;;;13.18;6.53;;;;;;;;;;8301993;28;20100;-81
2022/04/05 23:01:10;;;;;;;13.25;6.72;;;;;;;;;;8301952;28;20111;-81
2022/04/05 23:05:13;;;;;;;12.55;6.38;;;;;;;;;;8301493;28;20045;-81
2022/04/05 23:09:17;;;;;;;13.52;6.07;;;;;;;;;;8302011;28;20447;-82
2022/04/05 23:13:19;;;;;;;11.48;6.18;;;;;;;;;;8301591;28;20053;-81
2022/04/05 23:17:22;;;;;;;14.00;6.70;;;;;;;;;;8301001;28;20037;-83
2022/04/05 23:21:25;;;;;;;10.90;6.22;;;;;;;;;;8299280;28;20481;-82
2022/04/05 23:25:29;;;;;;;12.30;5.90;;;;;;;;;;8300083;28;20057;-82
2022/04/05 23:29:32;;;;;;;14.35;6.50;;;;;;;;;;8301058;28;20500;-82
2022/04/05 23:33:35;;;;;;;15.77;6.15;;;;;;;;;;8300752;28;20056;-81
2022/04/05 23:37:38;;;;;;;13.73;6.22;;;;;;;;;;8300579;28;20412;-83
2022/04/05 23:41:42;;;;;;;14.63;7.20;;;;;;;;;;8300438;28;20095;-82
2022/04/05 23:45:44;;;;;;;14.13;7.18;;;;;;;;;;8300248;28;20049;-81
2022/04/05 23:49:48;;;;;;;16.70;8.77;;;;;;;;;;8300396;28;20046;-82
2022/04/05 23:53:51;;;;;;;19.45;9.05;;;;;;;;;;8300478;28;20054;-84
2022/04/05 23:57:54;;;;;;;17.08;9.13;;;;;;;;;;8300414;28;20045;-83
